sensor_id;sensor_type;location;lat;lon;timestamp;pressure;altitude;pressure_sealevel;temperature
20736;BMP180;10528;52.124;5.196;2023-03-14T00:02:14;98748.00;;;17.10
20736;BMP180;10528;52.124;5.196;2023-03-14T00:04:41;98752.00;;;17.10
20736;BMP180;10528;52.124;5.196;2023-03-14T00:07:11;98749.00;;;17.10
20736;BMP180;10528;52.124;5.196;2023-03-14T00:09:38;98742.00;;;17.10
20736;BMP180;10528;52.124;5.196;2023-03-14T00:12:06;98751.00;;;17.10
20736;BMP180;10528;52.124;5.196;2023-03-14T00:14:34;98746.00;;;17.10
20736;BMP180;10528;52.124;5.196;2023-03-14T00:17:01;98756.00;;;17.10
20736;BMP180;10528;52.124;5.196;2023-03-14T00:19:27;98745.00;;;17.10
20736;BMP180;10528;52.124;5.196;2023-03-14T00:21:54;98747.00;;;17.20
20736;BMP180;10528;52.124;5.196;2023-03-14T00:24:21;98734.00;;;17.20
20736;BMP180;10528;52.124;5.196;2023-03-14T00:26:48;98731.00;;;17.10
20736;BMP180;10528;52.124;5.196;2023-03-14T00:29:14;98732.00;;;17.10
20736;BMP180;10528;52.124;5.196;2023-03-14T00:31:44;98738.00;;;17.10
20736;BMP180;10528;52.124;5.196;2023-03-14T00:34:11;98747.00;;;17.10
20736;BMP180;10528;52.124;5.196;2023-03-14T00:36:38;98743.00;;;17.00
20736;BMP180;10528;52.124;5.196;2023-03-14T00:39:05;98744.00;;;17.00
20736;BMP180;10528;52.124;5.196;2023-03-14T00:41:32;98748.00;;;17.00
20736;BMP180;10528;52.124;5.196;2023-03-14T00:43:59;98740.00;;;16.90
20736;BMP180;10528;52.124;5.196;2023-03-14T00:46:26;98743.00;;;16.70
20736;BMP180;10528;52.124;5.196;2023-03-14T00:48:53;98748.00;;;16.80
20736;BMP180;10528;52.124;5.196;2023-03-14T00:51:20;98752.00;;;16.80
20736;BMP180;10528;52.124;5.196;2023-03-14T00:53:47;98750.00;;;16.80
20736;BMP180;10528;52.124;5.196;2023-03-14T00:56:14;98760.00;;;16.80
20736;BMP180;10528;52.124;5.196;2023-03-14T00:58:41;98736.00;;;16.80
20736;BMP180;10528;52.124;5.196;2023-03-14T01:01:15;98737.00;;;16.80
20736;BMP180;10528;52.124;5.196;2023-03-14T01:03:42;98740.00;;;16.80
20736;BMP180;10528;52.124;5.196;2023-03-14T01:06:13;98757.00;;;16.80
20736;BMP180;10528;52.124;5.196;2023-03-14T01:08:43;98753.00;;;16.80
20736;BMP180;10528;52.124;5.196;2023-03-14T01:11:28;98761.00;;;16.80
20736;BMP180;10528;52.124;5.196;2023-03-14T01:13:57;98748.00;;;16.80
20736;BMP180;10528;52.124;5.196;2023-03-14T01:16:32;98756.00;;;16.80
20736;BMP180;10528;52.124;5.196;2023-03-14T01:19:01;98751.00;;;16.80
20736;BMP180;10528;52.124;5.196;2023-03-14T01:21:32;98756.00;;;16.80
20736;BMP180;10528;52.124;5.196;2023-03-14T01:24:01;98755.00;;;16.80
20736;BMP180;10528;52.124;5.196;2023-03-14T01:26:32;98758.00;;;16.70
20736;BMP180;10528;52.124;5.196;2023-03-14T01:29:00;98758.00;;;16.70
20736;BMP180;10528;52.124;5.196;2023-03-14T01:31:28;98766.00;;;16.70
20736;BMP180;10528;52.124;5.196;2023-03-14T01:33:55;98759.00;;;16.70
20736;BMP180;10528;52.124;5.196;2023-03-14T01:36:22;98748.00;;;16.60
20736;BMP180;10528;52.124;5.196;2023-03-14T01:38:49;98751.00;;;16.60
20736;BMP180;10528;52.124;5.196;2023-03-14T01:41:24;98739.00;;;16.50
20736;BMP180;10528;52.124;5.196;2023-03-14T01:43:53;98740.00;;;16.50
20736;BMP180;10528;52.124;5.196;2023-03-14T01:46:32;98732.00;;;16.50
20736;BMP180;10528;52.124;5.196;2023-03-14T01:49:20;98735.00;;;16.50
20736;BMP180;10528;52.124;5.196;2023-03-14T01:52:07;98744.00;;;16.50
20736;BMP180;10528;52.124;5.196;2023-03-14T01:54:53;98741.00;;;16.50
20736;BMP180;10528;52.124;5.196;2023-03-14T01:57:27;98731.00;;;16.50
20736;BMP180;10528;52.124;5.196;2023-03-14T02:00:23;98736.00;;;16.50
20736;BMP180;10528;52.124;5.196;2023-03-14T02:02:55;98735.00;;;16.50
20736;BMP180;10528;52.124;5.196;2023-03-14T02:05:35;98729.00;;;16.50
20736;BMP180;10528;52.124;5.196;2023-03-14T02:08:13;98714.00;;;16.60
20736;BMP180;10528;52.124;5.196;2023-03-14T02:10:50;98732.00;;;16.60
20736;BMP180;10528;52.124;5.196;2023-03-14T02:13:28;98721.00;;;16.50
20736;BMP180;10528;52.124;5.196;2023-03-14T02:16:12;98720.00;;;16.50
20736;BMP180;10528;52.124;5.196;2023-03-14T02:18:40;98711.00;;;16.50
20736;BMP180;10528;52.124;5.196;2023-03-14T02:25:06;98706.00;;;16.50
20736;BMP180;10528;52.124;5.196;2023-03-14T02:27:35;98697.00;;;16.50
20736;BMP180;10528;52.124;5.196;2023-03-14T02:30:08;98696.00;;;16.50
20736;BMP180;10528;52.124;5.196;2023-03-14T02:32:43;98701.00;;;16.50
20736;BMP180;10528;52.124;5.196;2023-03-14T02:35:20;98703.00;;;16.50
20736;BMP180;10528;52.124;5.196;2023-03-14T02:38:03;98694.00;;;16.50
20736;BMP180;10528;52.124;5.196;2023-03-14T02:40:37;98695.00;;;16.40
20736;BMP180;10528;52.124;5.196;2023-03-14T02:43:04;98703.00;;;16.50
20736;BMP180;10528;52.124;5.196;2023-03-14T02:45:35;98697.00;;;16.50
20736;BMP180;10528;52.124;5.196;2023-03-14T02:48:15;98692.00;;;16.40
20736;BMP180;10528;52.124;5.196;2023-03-14T02:50:47;98686.00;;;16.40
20736;BMP180;10528;52.124;5.196;2023-03-14T02:53:20;98684.00;;;16.40
20736;BMP180;10528;52.124;5.196;2023-03-14T02:55:49;98685.00;;;16.40
20736;BMP180;10528;52.124;5.196;2023-03-14T02:58:19;98691.00;;;16.40
20736;BMP180;10528;52.124;5.196;2023-03-14T03:00:50;98688.00;;;16.40
20736;BMP180;10528;52.124;5.196;2023-03-14T03:03:18;98681.00;;;16.40
20736;BMP180;10528;52.124;5.196;2023-03-14T03:05:50;98692.00;;;16.40
20736;BMP180;10528;52.124;5.196;2023-03-14T03:08:23;98691.00;;;16.40
20736;BMP180;10528;52.124;5.196;2023-03-14T03:10:51;98677.00;;;16.40
20736;BMP180;10528;52.124;5.196;2023-03-14T03:13:19;98682.00;;;16.40
20736;BMP180;10528;52.124;5.196;2023-03-14T03:15:49;98681.00;;;16.40
20736;BMP180;10528;52.124;5.196;2023-03-14T03:18:18;98681.00;;;16.40
20736;BMP180;10528;52.124;5.196;2023-03-14T03:20:45;98686.00;;;16.40
20736;BMP180;10528;52.124;5.196;2023-03-14T03:23:12;98679.00;;;16.40
20736;BMP180;10528;52.124;5.196;2023-03-14T03:25:39;98674.00;;;16.40
20736;BMP180;10528;52.124;5.196;2023-03-14T03:28:06;98670.00;;;16.40
20736;BMP180;10528;52.124;5.196;2023-03-14T03:30:39;98659.00;;;16.40
20736;BMP180;10528;52.124;5.196;2023-03-14T03:33:07;98660.00;;;16.40
20736;BMP180;10528;52.124;5.196;2023-03-14T03:35:34;98651.00;;;16.40
20736;BMP180;10528;52.124;5.196;2023-03-14T03:38:02;98664.00;;;16.40
20736;BMP180;10528;52.124;5.196;2023-03-14T03:40:30;98666.00;;;16.40
20736;BMP180;10528;52.124;5.196;2023-03-14T03:42:57;98664.00;;;16.40
20736;BMP180;10528;52.124;5.196;2023-03-14T03:45:25;98664.00;;;16.40
20736;BMP180;10528;52.124;5.196;2023-03-14T03:47:55;98658.00;;;16.40
20736;BMP180;10528;52.124;5.196;2023-03-14T03:50:22;98653.00;;;16.40
20736;BMP180;10528;52.124;5.196;2023-03-14T03:52:49;98657.00;;;16.40
20736;BMP180;10528;52.124;5.196;2023-03-14T03:55:16;98658.00;;;16.40
20736;BMP180;10528;52.124;5.196;2023-03-14T03:57:44;98654.00;;;16.40
20736;BMP180;10528;52.124;5.196;2023-03-14T04:00:11;98645.00;;;16.40
20736;BMP180;10528;52.124;5.196;2023-03-14T04:02:42;98655.00;;;16.40
20736;BMP180;10528;52.124;5.196;2023-03-14T04:05:13;98656.00;;;16.40
20736;BMP180;10528;52.124;5.196;2023-03-14T04:07:46;98651.00;;;16.40
20736;BMP180;10528;52.124;5.196;2023-03-14T04:10:17;98655.00;;;16.40
20736;BMP180;10528;52.124;5.196;2023-03-14T04:12:58;98660.00;;;16.40
20736;BMP180;10528;52.124;5.196;2023-03-14T04:15:28;98652.00;;;16.40
20736;BMP180;10528;52.124;5.196;2023-03-14T04:17:58;98648.00;;;16.40
20736;BMP180;10528;52.124;5.196;2023-03-14T04:20:25;98649.00;;;16.40
20736;BMP180;10528;52.124;5.196;2023-03-14T04:22:53;98667.00;;;16.40
20736;BMP180;10528;52.124;5.196;2023-03-14T04:25:20;98656.00;;;16.40
20736;BMP180;10528;52.124;5.196;2023-03-14T04:27:52;98670.00;;;16.40
20736;BMP180;10528;52.124;5.196;2023-03-14T04:30:23;98665.00;;;16.40
20736;BMP180;10528;52.124;5.196;2023-03-14T04:32:53;98660.00;;;16.50
20736;BMP180;10528;52.124;5.196;2023-03-14T04:35:23;98647.00;;;16.50
20736;BMP180;10528;52.124;5.196;2023-03-14T04:37:53;98654.00;;;16.50
20736;BMP180;10528;52.124;5.196;2023-03-14T04:40:21;98645.00;;;16.50
20736;BMP180;10528;52.124;5.196;2023-03-14T04:42:51;98656.00;;;16.40
20736;BMP180;10528;52.124;5.196;2023-03-14T04:45:19;98646.00;;;16.40
20736;BMP180;10528;52.124;5.196;2023-03-14T04:47:46;98643.00;;;16.40
20736;BMP180;10528;52.124;5.196;2023-03-14T04:50:16;98631.00;;;16.50
20736;BMP180;10528;52.124;5.196;2023-03-14T04:52:44;98634.00;;;16.50
20736;BMP180;10528;52.124;5.196;2023-03-14T04:55:10;98650.00;;;16.40
20736;BMP180;10528;52.124;5.196;2023-03-14T04:57:37;98651.00;;;16.40
20736;BMP180;10528;52.124;5.196;2023-03-14T05:00:08;98643.00;;;16.40
20736;BMP180;10528;52.124;5.196;2023-03-14T05:02:50;98645.00;;;16.40
20736;BMP180;10528;52.124;5.196;2023-03-14T05:05:37;98647.00;;;16.40
20736;BMP180;10528;52.124;5.196;2023-03-14T05:08:22;98640.00;;;16.40
20736;BMP180;10528;52.124;5.196;2023-03-14T05:11:18;98629.00;;;16.40
20736;BMP180;10528;52.124;5.196;2023-03-14T05:13:54;98634.00;;;16.40
20736;BMP180;10528;52.124;5.196;2023-03-14T05:16:41;98641.00;;;16.40
20736;BMP180;10528;52.124;5.196;2023-03-14T05:19:20;98643.00;;;16.40
20736;BMP180;10528;52.124;5.196;2023-03-14T05:22:06;98631.00;;;16.40
20736;BMP180;10528;52.124;5.196;2023-03-14T05:24:56;98633.00;;;16.30
20736;BMP180;10528;52.124;5.196;2023-03-14T05:27:31;98618.00;;;16.30
20736;BMP180;10528;52.124;5.196;2023-03-14T05:30:27;98626.00;;;16.30
20736;BMP180;10528;52.124;5.196;2023-03-14T05:33:13;98615.00;;;16.30
20736;BMP180;10528;52.124;5.196;2023-03-14T05:35:54;98621.00;;;16.30
20736;BMP180;10528;52.124;5.196;2023-03-14T05:38:40;98614.00;;;16.30
20736;BMP180;10528;52.124;5.196;2023-03-14T05:41:30;98615.00;;;16.30
20736;BMP180;10528;52.124;5.196;2023-03-14T05:44:10;98616.00;;;16.20
20736;BMP180;10528;52.124;5.196;2023-03-14T05:46:49;98625.00;;;16.20
20736;BMP180;10528;52.124;5.196;2023-03-14T05:49:29;98622.00;;;16.20
20736;BMP180;10528;52.124;5.196;2023-03-14T05:52:12;98617.00;;;16.20
20736;BMP180;10528;52.124;5.196;2023-03-14T05:55:09;98619.00;;;16.20
20736;BMP180;10528;52.124;5.196;2023-03-14T05:58:02;98623.00;;;16.20
20736;BMP180;10528;52.124;5.196;2023-03-14T06:00:42;98619.00;;;16.20
20736;BMP180;10528;52.124;5.196;2023-03-14T06:03:20;98626.00;;;16.20
20736;BMP180;10528;52.124;5.196;2023-03-14T06:05:50;98633.00;;;16.20
20736;BMP180;10528;52.124;5.196;2023-03-14T06:08:19;98630.00;;;16.10
20736;BMP180;10528;52.124;5.196;2023-03-14T06:10:46;98630.00;;;16.10
20736;BMP180;10528;52.124;5.196;2023-03-14T06:13:15;98641.00;;;16.10
20736;BMP180;10528;52.124;5.196;2023-03-14T06:15:42;98644.00;;;16.20
20736;BMP180;10528;52.124;5.196;2023-03-14T06:18:10;98650.00;;;16.10
20736;BMP180;10528;52.124;5.196;2023-03-14T06:20:39;98672.00;;;16.10
20736;BMP180;10528;52.124;5.196;2023-03-14T06:23:09;98687.00;;;16.10
20736;BMP180;10528;52.124;5.196;2023-03-14T06:25:37;98684.00;;;16.00
20736;BMP180;10528;52.124;5.196;2023-03-14T06:28:04;98702.00;;;16.00
20736;BMP180;10528;52.124;5.196;2023-03-14T06:30:31;98719.00;;;15.90
20736;BMP180;10528;52.124;5.196;2023-03-14T06:32:58;98724.00;;;15.90
20736;BMP180;10528;52.124;5.196;2023-03-14T06:35:26;98736.00;;;15.90
20736;BMP180;10528;52.124;5.196;2023-03-14T06:37:54;98747.00;;;15.80
20736;BMP180;10528;52.124;5.196;2023-03-14T06:40:21;98749.00;;;15.80
20736;BMP180;10528;52.124;5.196;2023-03-14T06:43:07;98760.00;;;15.70
20736;BMP180;10528;52.124;5.196;2023-03-14T06:45:35;98763.00;;;15.70
20736;BMP180;10528;52.124;5.196;2023-03-14T06:48:03;98768.00;;;15.70
20736;BMP180;10528;52.124;5.196;2023-03-14T06:50:42;98780.00;;;15.70
20736;BMP180;10528;52.124;5.196;2023-03-14T06:53:09;98778.00;;;15.70
20736;BMP180;10528;52.124;5.196;2023-03-14T06:55:40;98778.00;;;15.60
20736;BMP180;10528;52.124;5.196;2023-03-14T06:58:07;98796.00;;;15.60
20736;BMP180;10528;52.124;5.196;2023-03-14T07:00:40;98800.00;;;15.60
20736;BMP180;10528;52.124;5.196;2023-03-14T07:03:08;98810.00;;;15.60
20736;BMP180;10528;52.124;5.196;2023-03-14T07:05:40;98815.00;;;15.50
20736;BMP180;10528;52.124;5.196;2023-03-14T07:08:10;98823.00;;;15.50
20736;BMP180;10528;52.124;5.196;2023-03-14T07:10:38;98827.00;;;15.50
20736;BMP180;10528;52.124;5.196;2023-03-14T07:13:06;98849.00;;;15.50
20736;BMP180;10528;52.124;5.196;2023-03-14T07:15:38;98854.00;;;15.40
20736;BMP180;10528;52.124;5.196;2023-03-14T07:18:08;98872.00;;;15.40
20736;BMP180;10528;52.124;5.196;2023-03-14T07:20:35;98875.00;;;15.40
20736;BMP180;10528;52.124;5.196;2023-03-14T07:23:03;98891.00;;;15.40
20736;BMP180;10528;52.124;5.196;2023-03-14T07:25:51;98903.00;;;15.40
20736;BMP180;10528;52.124;5.196;2023-03-14T07:28:21;98912.00;;;15.40
20736;BMP180;10528;52.124;5.196;2023-03-14T07:30:55;98923.00;;;15.40
20736;BMP180;10528;52.124;5.196;2023-03-14T07:33:27;98920.00;;;15.40
20736;BMP180;10528;52.124;5.196;2023-03-14T07:35:54;98932.00;;;15.40
20736;BMP180;10528;52.124;5.196;2023-03-14T07:38:22;98948.00;;;15.40
20736;BMP180;10528;52.124;5.196;2023-03-14T07:41:24;98956.00;;;15.30
20736;BMP180;10528;52.124;5.196;2023-03-14T07:44:26;98971.00;;;15.30
20736;BMP180;10528;52.124;5.196;2023-03-14T07:46:53;98984.00;;;15.20
20736;BMP180;10528;52.124;5.196;2023-03-14T07:49:20;98985.00;;;15.20
20736;BMP180;10528;52.124;5.196;2023-03-14T07:51:48;99002.00;;;15.20
20736;BMP180;10528;52.124;5.196;2023-03-14T07:54:15;99016.00;;;15.20
20736;BMP180;10528;52.124;5.196;2023-03-14T07:56:43;99020.00;;;15.10
20736;BMP180;10528;52.124;5.196;2023-03-14T07:59:10;99030.00;;;15.10
20736;BMP180;10528;52.124;5.196;2023-03-14T08:01:38;99053.00;;;15.10
20736;BMP180;10528;52.124;5.196;2023-03-14T08:04:05;99076.00;;;15.10
20736;BMP180;10528;52.124;5.196;2023-03-14T08:06:32;99085.00;;;15.00
20736;BMP180;10528;52.124;5.196;2023-03-14T08:08:59;99102.00;;;14.90
20736;BMP180;10528;52.124;5.196;2023-03-14T08:11:25;99115.00;;;14.80
20736;BMP180;10528;52.124;5.196;2023-03-14T08:13:52;99115.00;;;14.70
20736;BMP180;10528;52.124;5.196;2023-03-14T08:16:19;99138.00;;;14.60
20736;BMP180;10528;52.124;5.196;2023-03-14T08:18:46;99143.00;;;14.40
20736;BMP180;10528;52.124;5.196;2023-03-14T08:21:14;99159.00;;;14.30
20736;BMP180;10528;52.124;5.196;2023-03-14T08:23:41;99163.00;;;14.30
20736;BMP180;10528;52.124;5.196;2023-03-14T08:26:07;99189.00;;;14.20
20736;BMP180;10528;52.124;5.196;2023-03-14T08:28:34;99193.00;;;14.10
20736;BMP180;10528;52.124;5.196;2023-03-14T08:31:02;99212.00;;;14.00
20736;BMP180;10528;52.124;5.196;2023-03-14T08:33:30;99208.00;;;14.00
20736;BMP180;10528;52.124;5.196;2023-03-14T08:35:59;99216.00;;;13.90
20736;BMP180;10528;52.124;5.196;2023-03-14T08:38:27;99233.00;;;13.90
20736;BMP180;10528;52.124;5.196;2023-03-14T08:41:02;99240.00;;;13.90
20736;BMP180;10528;52.124;5.196;2023-03-14T08:43:30;99243.00;;;13.90
20736;BMP180;10528;52.124;5.196;2023-03-14T08:45:59;99257.00;;;13.90
20736;BMP180;10528;52.124;5.196;2023-03-14T08:48:27;99272.00;;;13.90
20736;BMP180;10528;52.124;5.196;2023-03-14T08:51:03;99280.00;;;14.00
20736;BMP180;10528;52.124;5.196;2023-03-14T08:53:30;99289.00;;;14.00
20736;BMP180;10528;52.124;5.196;2023-03-14T08:55:57;99298.00;;;14.00
20736;BMP180;10528;52.124;5.196;2023-03-14T08:58:24;99309.00;;;14.00
20736;BMP180;10528;52.124;5.196;2023-03-14T09:00:51;99323.00;;;14.00
20736;BMP180;10528;52.124;5.196;2023-03-14T09:03:18;99325.00;;;14.00
20736;BMP180;10528;52.124;5.196;2023-03-14T09:05:45;99328.00;;;14.00
20736;BMP180;10528;52.124;5.196;2023-03-14T09:08:12;99344.00;;;14.00
20736;BMP180;10528;52.124;5.196;2023-03-14T09:10:39;99361.00;;;14.00
20736;BMP180;10528;52.124;5.196;2023-03-14T09:13:06;99369.00;;;14.00
20736;BMP180;10528;52.124;5.196;2023-03-14T09:15:33;99384.00;;;14.00
20736;BMP180;10528;52.124;5.196;2023-03-14T09:18:00;99373.00;;;14.00
20736;BMP180;10528;52.124;5.196;2023-03-14T09:20:27;99395.00;;;14.00
20736;BMP180;10528;52.124;5.196;2023-03-14T09:22:54;99413.00;;;14.00
20736;BMP180;10528;52.124;5.196;2023-03-14T09:25:20;99418.00;;;14.00
20736;BMP180;10528;52.124;5.196;2023-03-14T09:27:47;99427.00;;;14.00
20736;BMP180;10528;52.124;5.196;2023-03-14T09:30:14;99442.00;;;13.90
20736;BMP180;10528;52.124;5.196;2023-03-14T09:32:41;99456.00;;;13.90
20736;BMP180;10528;52.124;5.196;2023-03-14T09:35:08;99463.00;;;13.80
20736;BMP180;10528;52.124;5.196;2023-03-14T09:37:36;99463.00;;;13.80
20736;BMP180;10528;52.124;5.196;2023-03-14T09:40:04;99463.00;;;13.80
20736;BMP180;10528;52.124;5.196;2023-03-14T09:42:37;99482.00;;;13.80
20736;BMP180;10528;52.124;5.196;2023-03-14T09:45:29;99492.00;;;13.80
20736;BMP180;10528;52.124;5.196;2023-03-14T09:47:59;99495.00;;;13.80
20736;BMP180;10528;52.124;5.196;2023-03-14T09:50:43;99515.00;;;13.80
20736;BMP180;10528;52.124;5.196;2023-03-14T09:53:20;99519.00;;;13.90
20736;BMP180;10528;52.124;5.196;2023-03-14T09:55:50;99532.00;;;14.00
20736;BMP180;10528;52.124;5.196;2023-03-14T09:58:21;99536.00;;;14.00
20736;BMP180;10528;52.124;5.196;2023-03-14T10:00:55;99540.00;;;14.10
20736;BMP180;10528;52.124;5.196;2023-03-14T10:03:32;99546.00;;;14.10
20736;BMP180;10528;52.124;5.196;2023-03-14T10:06:00;99579.00;;;14.20
20736;BMP180;10528;52.124;5.196;2023-03-14T10:08:27;99583.00;;;14.20
20736;BMP180;10528;52.124;5.196;2023-03-14T10:10:54;99594.00;;;14.10
20736;BMP180;10528;52.124;5.196;2023-03-14T10:13:27;99609.00;;;14.10
20736;BMP180;10528;52.124;5.196;2023-03-14T10:16:04;99619.00;;;14.00
20736;BMP180;10528;52.124;5.196;2023-03-14T10:18:33;99634.00;;;14.00
20736;BMP180;10528;52.124;5.196;2023-03-14T10:21:26;99630.00;;;13.90
20736;BMP180;10528;52.124;5.196;2023-03-14T10:23:54;99641.00;;;13.90
20736;BMP180;10528;52.124;5.196;2023-03-14T10:26:27;99644.00;;;13.90
20736;BMP180;10528;52.124;5.196;2023-03-14T10:29:08;99654.00;;;13.90
20736;BMP180;10528;52.124;5.196;2023-03-14T10:31:54;99669.00;;;14.00
20736;BMP180;10528;52.124;5.196;2023-03-14T10:34:32;99666.00;;;14.10
20736;BMP180;10528;52.124;5.196;2023-03-14T10:37:14;99672.00;;;14.10
20736;BMP180;10528;52.124;5.196;2023-03-14T10:39:55;99694.00;;;14.20
20736;BMP180;10528;52.124;5.196;2023-03-14T10:42:27;99703.00;;;14.30
20736;BMP180;10528;52.124;5.196;2023-03-14T10:45:01;99714.00;;;14.40
20736;BMP180;10528;52.124;5.196;2023-03-14T10:47:29;99730.00;;;14.40
20736;BMP180;10528;52.124;5.196;2023-03-14T10:50:21;99752.00;;;14.40
20736;BMP180;10528;52.124;5.196;2023-03-14T10:52:49;99757.00;;;14.40
20736;BMP180;10528;52.124;5.196;2023-03-14T10:55:39;99757.00;;;14.40
20736;BMP180;10528;52.124;5.196;2023-03-14T10:58:28;99774.00;;;14.30
20736;BMP180;10528;52.124;5.196;2023-03-14T11:01:38;99785.00;;;14.30
20736;BMP180;10528;52.124;5.196;2023-03-14T11:07:33;99818.00;;;14.20
20736;BMP180;10528;52.124;5.196;2023-03-14T11:10:24;99824.00;;;14.20
20736;BMP180;10528;52.124;5.196;2023-03-14T11:19:01;99853.00;;;14.10
20736;BMP180;10528;52.124;5.196;2023-03-14T11:24:49;99858.00;;;14.20
20736;BMP180;10528;52.124;5.196;2023-03-14T11:27:42;99884.00;;;14.30
20736;BMP180;10528;52.124;5.196;2023-03-14T11:30:41;99894.00;;;14.30
20736;BMP180;10528;52.124;5.196;2023-03-14T11:33:29;99898.00;;;14.40
20736;BMP180;10528;52.124;5.196;2023-03-14T11:36:10;99893.00;;;14.50
20736;BMP180;10528;52.124;5.196;2023-03-14T11:38:52;99918.00;;;14.70
20736;BMP180;10528;52.124;5.196;2023-03-14T11:41:27;99925.00;;;14.80
20736;BMP180;10528;52.124;5.196;2023-03-14T11:43:58;99920.00;;;14.90
20736;BMP180;10528;52.124;5.196;2023-03-14T11:46:46;99929.00;;;14.90
20736;BMP180;10528;52.124;5.196;2023-03-14T11:49:37;99929.00;;;14.90
20736;BMP180;10528;52.124;5.196;2023-03-14T11:52:30;99943.00;;;14.90
20736;BMP180;10528;52.124;5.196;2023-03-14T11:55:13;99943.00;;;15.00
20736;BMP180;10528;52.124;5.196;2023-03-14T11:57:44;99951.00;;;15.00
20736;BMP180;10528;52.124;5.196;2023-03-14T12:00:20;99961.00;;;15.10
20736;BMP180;10528;52.124;5.196;2023-03-14T12:03:09;99968.00;;;15.10
20736;BMP180;10528;52.124;5.196;2023-03-14T12:09:03;99991.00;;;15.20
20736;BMP180;10528;52.124;5.196;2023-03-14T12:13:58;99997.00;;;15.30
20736;BMP180;10528;52.124;5.196;2023-03-14T12:16:37;100002.00;;;15.30
20736;BMP180;10528;52.124;5.196;2023-03-14T12:21:58;100008.00;;;15.30
20736;BMP180;10528;52.124;5.196;2023-03-14T12:24:34;100012.00;;;15.30
20736;BMP180;10528;52.124;5.196;2023-03-14T12:27:04;100019.00;;;15.30
20736;BMP180;10528;52.124;5.196;2023-03-14T12:29:31;100025.00;;;15.40
20736;BMP180;10528;52.124;5.196;2023-03-14T12:34:40;100045.00;;;15.40
20736;BMP180;10528;52.124;5.196;2023-03-14T12:40:16;100044.00;;;15.50
20736;BMP180;10528;52.124;5.196;2023-03-14T12:45:36;100052.00;;;15.60
20736;BMP180;10528;52.124;5.196;2023-03-14T12:48:10;100049.00;;;15.70
20736;BMP180;10528;52.124;5.196;2023-03-14T12:50:54;100067.00;;;15.80
20736;BMP180;10528;52.124;5.196;2023-03-14T12:57:14;100081.00;;;15.90
20736;BMP180;10528;52.124;5.196;2023-03-14T12:59:51;100101.00;;;15.80
20736;BMP180;10528;52.124;5.196;2023-03-14T13:10:29;100122.00;;;15.70
20736;BMP180;10528;52.124;5.196;2023-03-14T13:13:26;100126.00;;;15.60
20736;BMP180;10528;52.124;5.196;2023-03-14T13:15:59;100134.00;;;15.60
20736;BMP180;10528;52.124;5.196;2023-03-14T13:18:38;100142.00;;;15.60
20736;BMP180;10528;52.124;5.196;2023-03-14T13:21:21;100154.00;;;15.60
20736;BMP180;10528;52.124;5.196;2023-03-14T13:24:03;100160.00;;;15.60
20736;BMP180;10528;52.124;5.196;2023-03-14T13:26:42;100164.00;;;15.50
20736;BMP180;10528;52.124;5.196;2023-03-14T13:29:23;100162.00;;;15.50
20736;BMP180;10528;52.124;5.196;2023-03-14T13:31:56;100176.00;;;15.50
20736;BMP180;10528;52.124;5.196;2023-03-14T13:34:33;100180.00;;;15.50
20736;BMP180;10528;52.124;5.196;2023-03-14T13:37:00;100192.00;;;15.40
20736;BMP180;10528;52.124;5.196;2023-03-14T13:39:28;100183.00;;;15.40
20736;BMP180;10528;52.124;5.196;2023-03-14T13:42:01;100182.00;;;15.40
20736;BMP180;10528;52.124;5.196;2023-03-14T13:44:38;100196.00;;;15.30
20736;BMP180;10528;52.124;5.196;2023-03-14T13:47:14;100196.00;;;15.30
20736;BMP180;10528;52.124;5.196;2023-03-14T13:49:43;100210.00;;;15.40
20736;BMP180;10528;52.124;5.196;2023-03-14T13:52:38;100221.00;;;15.40
20736;BMP180;10528;52.124;5.196;2023-03-14T13:55:16;100223.00;;;15.40
20736;BMP180;10528;52.124;5.196;2023-03-14T13:57:50;100229.00;;;15.40
20736;BMP180;10528;52.124;5.196;2023-03-14T14:00:25;100235.00;;;15.40
20736;BMP180;10528;52.124;5.196;2023-03-14T14:02:59;100255.00;;;15.40
20736;BMP180;10528;52.124;5.196;2023-03-14T14:05:29;100263.00;;;15.40
20736;BMP180;10528;52.124;5.196;2023-03-14T14:07:58;100273.00;;;15.40
20736;BMP180;10528;52.124;5.196;2023-03-14T14:10:28;100273.00;;;15.40
20736;BMP180;10528;52.124;5.196;2023-03-14T14:13:03;100275.00;;;15.40
20736;BMP180;10528;52.124;5.196;2023-03-14T14:15:35;100283.00;;;15.30
20736;BMP180;10528;52.124;5.196;2023-03-14T14:18:08;100287.00;;;15.30
20736;BMP180;10528;52.124;5.196;2023-03-14T14:20:47;100291.00;;;15.30
20736;BMP180;10528;52.124;5.196;2023-03-14T14:23:25;100303.00;;;15.20
20736;BMP180;10528;52.124;5.196;2023-03-14T14:25:56;100314.00;;;15.20
20736;BMP180;10528;52.124;5.196;2023-03-14T14:28:34;100318.00;;;15.20
20736;BMP180;10528;52.124;5.196;2023-03-14T14:34:03;100332.00;;;15.10
20736;BMP180;10528;52.124;5.196;2023-03-14T14:36:39;100352.00;;;15.10
20736;BMP180;10528;52.124;5.196;2023-03-14T14:39:26;100344.00;;;15.10
20736;BMP180;10528;52.124;5.196;2023-03-14T14:41:55;100354.00;;;15.10
20736;BMP180;10528;52.124;5.196;2023-03-14T14:44:50;100369.00;;;15.00
20736;BMP180;10528;52.124;5.196;2023-03-14T14:47:25;100372.00;;;15.00
20736;BMP180;10528;52.124;5.196;2023-03-14T14:49:58;100376.00;;;15.00
20736;BMP180;10528;52.124;5.196;2023-03-14T14:52:43;100376.00;;;15.00
20736;BMP180;10528;52.124;5.196;2023-03-14T14:55:21;100379.00;;;15.00
20736;BMP180;10528;52.124;5.196;2023-03-14T14:57:55;100391.00;;;14.90
20736;BMP180;10528;52.124;5.196;2023-03-14T15:00:27;100404.00;;;14.90
20736;BMP180;10528;52.124;5.196;2023-03-14T15:02:59;100415.00;;;14.90
20736;BMP180;10528;52.124;5.196;2023-03-14T15:05:28;100424.00;;;14.90
20736;BMP180;10528;52.124;5.196;2023-03-14T15:07:57;100421.00;;;14.90
20736;BMP180;10528;52.124;5.196;2023-03-14T15:10:25;100428.00;;;14.90
20736;BMP180;10528;52.124;5.196;2023-03-14T15:12:53;100415.00;;;14.80
20736;BMP180;10528;52.124;5.196;2023-03-14T15:15:19;100425.00;;;14.90
20736;BMP180;10528;52.124;5.196;2023-03-14T15:17:46;100429.00;;;14.80
20736;BMP180;10528;52.124;5.196;2023-03-14T15:20:16;100439.00;;;14.80
20736;BMP180;10528;52.124;5.196;2023-03-14T15:22:45;100440.00;;;14.70
20736;BMP180;10528;52.124;5.196;2023-03-14T15:25:12;100440.00;;;14.70
20736;BMP180;10528;52.124;5.196;2023-03-14T15:27:59;100452.00;;;14.70
20736;BMP180;10528;52.124;5.196;2023-03-14T15:30:26;100456.00;;;14.70